createdAt,value
2023-04-05T00:01:33.848Z,98397.03
2023-04-05T00:03:35.436Z,98392.66
2023-04-05T00:05:36.846Z,98389.16
2023-04-05T00:07:38.493Z,98381.59
2023-04-05T00:09:39.787Z,98386.75
2023-04-05T00:11:41.087Z,98383.38
2023-04-05T00:13:42.427Z,98384.28
2023-04-05T00:15:43.743Z,98379.28
2023-04-05T00:17:45.121Z,98373.41
2023-04-05T00:19:51.613Z,98377.75
2023-04-05T00:21:54.589Z,98377.84
2023-04-05T00:23:57.189Z,98371.13
2023-04-05T00:25:58.515Z,98370.38
2023-04-05T00:27:59.912Z,98370.44
2023-04-05T00:30:01.356Z,98367.13
2023-04-05T00:32:02.875Z,98364.66
2023-04-05T00:34:06.033Z,98360.50
2023-04-05T00:36:07.415Z,98357.16
2023-04-05T00:38:08.745Z,98356.38
2023-04-05T00:40:10.614Z,98354.63
2023-04-05T00:42:11.904Z,98358.94
2023-04-05T00:44:13.209Z,98358.97
2023-04-05T00:46:14.582Z,98360.69
2023-04-05T00:48:16.100Z,98355.66
2023-04-05T00:50:17.442Z,98347.19
2023-04-05T00:52:19.711Z,98349.75
2023-04-05T00:54:21.012Z,98344.59
2023-04-05T00:56:22.725Z,98347.16
2023-04-05T00:58:24.425Z,98343.75
2023-04-05T01:00:26.388Z,98352.22
2023-04-05T01:02:27.758Z,98345.41
2023-04-05T01:04:30.549Z,98345.34
2023-04-05T01:06:31.926Z,98349.53
2023-04-05T01:08:33.256Z,98345.19
2023-04-05T01:10:34.565Z,98351.84
2023-04-05T01:12:36.480Z,98340.69
2023-04-05T01:14:37.774Z,98341.38
2023-04-05T01:16:39.076Z,98342.13
2023-04-05T01:18:41.192Z,98342.00
2023-04-05T01:20:43.188Z,98340.19
2023-04-05T01:22:44.687Z,98346.00
2023-04-05T01:24:46.834Z,98335.72
2023-04-05T01:26:48.187Z,98339.03
2023-04-05T01:28:50.236Z,98337.97
2023-04-05T01:30:51.584Z,98335.41
2023-04-05T01:32:52.943Z,98337.13
2023-04-05T01:34:54.323Z,98332.09
2023-04-05T01:36:55.690Z,98332.16
2023-04-05T01:38:57.013Z,98331.31
2023-04-05T01:40:58.325Z,98327.94
2023-04-05T01:42:59.627Z,98323.75
2023-04-05T01:45:01.183Z,98331.50
2023-04-05T01:47:02.506Z,98321.34
2023-04-05T01:49:03.851Z,98318.00
2023-04-05T01:51:05.159Z,98328.31
2023-04-05T01:53:06.484Z,98323.31
2023-04-05T01:55:07.862Z,98325.22
2023-04-05T01:57:09.181Z,98322.81
2023-04-05T01:59:10.599Z,98320.41
2023-04-05T02:01:12.070Z,98311.19
2023-04-05T02:03:13.540Z,98312.06
2023-04-05T02:05:14.951Z,98313.06
2023-04-05T02:07:16.257Z,98308.88
2023-04-05T02:09:17.642Z,98311.50
2023-04-05T02:11:18.936Z,98315.78
2023-04-05T02:13:22.185Z,98316.66
2023-04-05T02:15:23.564Z,98310.75
2023-04-05T02:17:24.896Z,98304.81
2023-04-05T02:19:26.487Z,98306.53
2023-04-05T02:21:27.815Z,98307.38
2023-04-05T02:23:30.611Z,98308.19
2023-04-05T02:25:31.920Z,98306.34
2023-04-05T02:27:33.277Z,98309.69
2023-04-05T02:29:34.905Z,98305.31
2023-04-05T02:31:36.274Z,98311.13
2023-04-05T02:33:37.605Z,98306.75
2023-04-05T02:35:38.963Z,98304.03
2023-04-05T02:37:41.696Z,98304.72
2023-04-05T02:39:43.194Z,98305.38
2023-04-05T02:41:44.505Z,98311.06
2023-04-05T02:43:46.482Z,98307.88
2023-04-05T02:45:47.836Z,98308.06
2023-04-05T02:47:49.217Z,98308.28
2023-04-05T02:49:50.576Z,98298.22
2023-04-05T02:51:51.996Z,98307.69
2023-04-05T02:53:53.324Z,98297.38
2023-04-05T02:55:55.014Z,98297.00
2023-04-05T02:57:58.038Z,98297.69
2023-04-05T02:59:59.404Z,98297.06
2023-04-05T03:02:00.796Z,98298.84
2023-04-05T03:04:05.310Z,98290.44
2023-04-05T03:06:15.621Z,98295.50
2023-04-05T03:08:20.203Z,98296.53
2023-04-05T03:10:22.491Z,98298.31
2023-04-05T03:12:23.914Z,98291.59
2023-04-05T03:14:25.626Z,98289.94
2023-04-05T03:16:27.526Z,98286.59
2023-04-05T03:18:31.903Z,98296.84
2023-04-05T03:20:34.405Z,98290.94
2023-04-05T03:22:36.215Z,98295.28
2023-04-05T03:24:37.511Z,98293.59
2023-04-05T03:26:38.923Z,98287.72
2023-04-05T03:28:45.187Z,98287.75
2023-04-05T03:30:46.621Z,98288.66
2023-04-05T03:32:47.939Z,98287.84
2023-04-05T03:34:49.270Z,98294.66
2023-04-05T03:36:50.573Z,98290.44
2023-04-05T03:38:52.018Z,98289.69
2023-04-05T03:40:53.367Z,98286.28
2023-04-05T03:42:54.680Z,98285.41
2023-04-05T03:44:56.121Z,98283.72
2023-04-05T03:46:57.440Z,98281.94
2023-04-05T03:48:58.765Z,98278.53
2023-04-05T03:51:00.050Z,98274.25
2023-04-05T03:53:02.201Z,98270.75
2023-04-05T03:55:03.639Z,98269.00
2023-04-05T03:57:04.951Z,98260.41
2023-04-05T03:59:06.659Z,98265.41
2023-04-05T04:01:08.019Z,98271.28
2023-04-05T04:03:09.929Z,98271.28
2023-04-05T04:05:11.868Z,98273.06
2023-04-05T04:07:13.207Z,98273.16
2023-04-05T04:09:14.529Z,98273.25
2023-04-05T04:11:15.826Z,98266.59
2023-04-05T04:13:19.272Z,98262.47
2023-04-05T04:15:20.870Z,98266.75
2023-04-05T04:17:22.193Z,98267.69
2023-04-05T04:19:23.482Z,98270.25
2023-04-05T04:21:25.107Z,98269.44
2023-04-05T04:23:27.364Z,98270.22
2023-04-05T04:25:30.888Z,98266.75
2023-04-05T04:27:32.303Z,98265.00
2023-04-05T04:29:33.635Z,98276.84
2023-04-05T04:31:35.152Z,98272.53
2023-04-05T04:33:36.531Z,98268.19
2023-04-05T04:35:40.826Z,98270.66
2023-04-05T04:37:46.663Z,98267.22
2023-04-05T04:39:48.835Z,98273.88
2023-04-05T04:41:50.532Z,98278.94
2023-04-05T04:43:55.008Z,98280.59
2023-04-05T04:45:56.396Z,98271.19
2023-04-05T04:47:57.812Z,98274.53
2023-04-05T04:49:59.438Z,98277.03
2023-04-05T04:52:00.872Z,98278.75
2023-04-05T04:54:02.187Z,98277.88
2023-04-05T04:56:03.590Z,98276.13
2023-04-05T04:58:09.858Z,98128.00
2023-04-05T05:00:15.628Z,98278.78
2023-04-05T05:02:17.102Z,98277.94
2023-04-05T05:04:18.526Z,98282.25
2023-04-05T05:06:22.017Z,98281.44
2023-04-05T05:08:23.383Z,98277.22
2023-04-05T05:10:24.728Z,98271.31
2023-04-05T05:12:26.834Z,98281.56
2023-04-05T05:14:28.134Z,98288.44
2023-04-05T05:16:29.466Z,98289.34
2023-04-05T05:18:30.829Z,98291.13
2023-04-05T05:20:32.492Z,98280.97
2023-04-05T05:22:33.817Z,98287.78
2023-04-05T05:24:35.185Z,98289.56
2023-04-05T05:26:38.033Z,98287.03
2023-04-05T05:28:39.603Z,98290.50
2023-04-05T05:30:41.131Z,98293.09
2023-04-05T05:32:43.150Z,98286.34
2023-04-05T05:34:45.137Z,98288.06
2023-04-05T05:36:46.829Z,98289.78
2023-04-05T05:38:49.172Z,98293.16
2023-04-05T05:40:50.610Z,98286.34
2023-04-05T05:42:51.910Z,98288.84
2023-04-05T05:44:53.243Z,98296.50
2023-04-05T05:46:54.534Z,98289.59
2023-04-05T05:48:55.851Z,98300.63
2023-04-05T05:50:57.335Z,98293.75
2023-04-05T05:53:00.340Z,98295.38
2023-04-05T05:55:02.889Z,98288.47
2023-04-05T05:57:04.516Z,98290.09
2023-04-05T05:59:07.023Z,98293.44
2023-04-05T06:01:08.826Z,98289.09
2023-04-05T06:03:10.922Z,98284.78
2023-04-05T06:05:12.322Z,98295.81
2023-04-05T06:07:13.825Z,98295.72
2023-04-05T06:09:18.067Z,98289.75
2023-04-05T06:11:19.417Z,98292.38
2023-04-05T06:13:20.828Z,98290.75
2023-04-05T06:15:22.449Z,98281.38
2023-04-05T06:17:23.865Z,98287.34
2023-04-05T06:19:25.501Z,98289.94
2023-04-05T06:21:27.150Z,98284.84
2023-04-05T06:23:28.441Z,98284.03
2023-04-05T06:25:29.757Z,98284.94
2023-04-05T06:27:31.076Z,98286.69
2023-04-05T06:29:32.409Z,98282.44
2023-04-05T06:31:33.846Z,98284.22
2023-04-05T06:33:35.465Z,98280.88
2023-04-05T06:35:36.788Z,98282.56
2023-04-05T06:37:38.155Z,98283.47
2023-04-05T06:39:39.552Z,98276.69
2023-04-05T06:41:40.873Z,98279.31
2023-04-05T06:43:42.216Z,98277.63
2023-04-05T06:45:43.575Z,98278.53
2023-04-05T06:47:45.032Z,98275.13
2023-04-05T06:49:46.364Z,98276.84
2023-04-05T06:51:47.696Z,98273.47
2023-04-05T06:53:49.055Z,98270.97
2023-04-05T06:55:53.454Z,98276.03
2023-04-05T06:57:54.783Z,98276.84
2023-04-05T06:59:56.112Z,98272.53
2023-04-05T07:01:57.440Z,98272.44
2023-04-05T07:03:58.816Z,98263.88
2023-04-05T07:06:00.269Z,98274.88
2023-04-05T07:08:01.792Z,98268.84
2023-04-05T07:10:03.111Z,98270.47
2023-04-05T07:12:04.485Z,98261.75
2023-04-05T07:14:08.586Z,98271.03
2023-04-05T07:16:10.025Z,98261.56
2023-04-05T07:18:11.423Z,98264.03
2023-04-05T07:20:12.711Z,98263.97
2023-04-05T07:22:14.048Z,98260.50
2023-04-05T07:24:15.491Z,98260.53
2023-04-05T07:26:16.831Z,98254.53
2023-04-05T07:28:18.123Z,98252.78
2023-04-05T07:30:19.455Z,98255.31
2023-04-05T07:32:20.923Z,98261.34
2023-04-05T07:34:23.178Z,98258.03
2023-04-05T07:36:24.500Z,98256.41
2023-04-05T07:38:25.808Z,98268.31
2023-04-05T07:40:27.803Z,98263.41
2023-04-05T07:42:29.201Z,98266.94
2023-04-05T07:44:30.623Z,98262.75
2023-04-05T07:46:32.013Z,98259.41
2023-04-05T07:48:33.375Z,98262.84
2023-04-05T07:50:34.779Z,98270.56
2023-04-05T07:52:36.539Z,98266.31
2023-04-05T07:54:43.386Z,98266.31
2023-04-05T07:56:44.723Z,98264.56
2023-04-05T07:58:46.128Z,98265.31
2023-04-05T08:00:47.475Z,98269.47
2023-04-05T08:02:48.842Z,98267.75
2023-04-05T08:04:50.465Z,98270.28
2023-04-05T08:06:51.833Z,98268.53
2023-04-05T08:08:53.130Z,98273.72
2023-04-05T08:10:54.740Z,98266.06
2023-04-05T08:12:56.088Z,98268.56
2023-04-05T08:14:57.438Z,98266.78
2023-04-05T08:16:58.729Z,98261.63
2023-04-05T08:19:00.041Z,98258.97
2023-04-05T08:21:02.269Z,98260.66
2023-04-05T08:23:03.608Z,98266.63
2023-04-05T08:25:04.932Z,98269.16
2023-04-05T08:27:06.489Z,98267.44
2023-04-05T08:29:08.110Z,98265.72
2023-04-05T08:31:10.469Z,98271.66
2023-04-05T08:33:13.287Z,98269.94
2023-04-05T08:35:14.706Z,98262.31
2023-04-05T08:37:16.021Z,98269.91
2023-04-05T08:39:17.407Z,98262.25
2023-04-05T08:41:18.767Z,98273.31
2023-04-05T08:43:20.573Z,98263.94
2023-04-05T08:45:22.003Z,98269.91
2023-04-05T08:47:23.320Z,98261.34
2023-04-05T08:49:24.664Z,98263.09
2023-04-05T08:51:28.863Z,98264.81
2023-04-05T08:53:30.813Z,98258.94
2023-04-05T08:55:32.201Z,98257.25
2023-04-05T08:57:33.632Z,98254.69
2023-04-05T08:59:35.713Z,98253.91
2023-04-05T09:01:37.199Z,98258.25
2023-04-05T09:03:38.717Z,98258.31
2023-04-05T09:05:40.092Z,98255.84
2023-04-05T09:07:41.428Z,98255.03
2023-04-05T09:09:42.719Z,98255.09
2023-04-05T09:11:44.076Z,98256.84
2023-04-05T09:13:45.385Z,98261.13
2023-04-05T09:15:47.188Z,98254.34
2023-04-05T09:17:48.549Z,98254.41
2023-04-05T09:19:50.471Z,98252.69
2023-04-05T09:21:51.812Z,98253.53
2023-04-05T09:23:54.055Z,98251.78
2023-04-05T09:25:55.388Z,98254.31
2023-04-05T09:27:56.840Z,98252.59
2023-04-05T09:29:58.188Z,98253.41
2023-04-05T09:31:59.479Z,98262.72
2023-04-05T09:34:01.593Z,98255.91
2023-04-05T09:36:02.956Z,98250.75
2023-04-05T09:38:05.180Z,98254.91
2023-04-05T09:40:07.091Z,98253.19
2023-04-05T09:42:08.514Z,98251.50
2023-04-05T09:44:09.825Z,98256.53
2023-04-05T09:46:11.211Z,98258.16
2023-04-05T09:48:13.728Z,98260.72
2023-04-05T09:50:15.147Z,98254.75
2023-04-05T09:52:16.504Z,98253.00
2023-04-05T09:54:17.827Z,98255.56
2023-04-05T09:56:19.170Z,98253.00
2023-04-05T09:58:21.332Z,98252.94
2023-04-05T10:00:22.769Z,98254.69
2023-04-05T10:02:24.315Z,98251.28
2023-04-05T10:04:25.783Z,98249.53
2023-04-05T10:06:27.967Z,98252.09
2023-04-05T10:08:29.308Z,98252.09
2023-04-05T10:10:30.638Z,98247.88
2023-04-05T10:12:31.992Z,98247.81
2023-04-05T10:14:34.536Z,98246.16
2023-04-05T10:16:36.041Z,98249.56
2023-04-05T10:18:39.746Z,98249.56
2023-04-05T10:20:42.115Z,98247.03
2023-04-05T10:22:43.648Z,98255.56
2023-04-05T10:24:44.963Z,98245.44
2023-04-05T10:26:46.827Z,98244.59
2023-04-05T10:28:48.184Z,98238.69
2023-04-05T10:30:49.639Z,98241.28
2023-04-05T10:32:51.056Z,98239.72
2023-04-05T10:34:52.471Z,98239.81
2023-04-05T10:36:53.887Z,98254.34
2023-04-05T10:38:55.261Z,98247.59
2023-04-05T10:40:56.611Z,98243.41
2023-04-05T10:42:58.024Z,98251.09
2023-04-05T10:45:00.441Z,98256.22
2023-04-05T10:47:01.953Z,98260.53
2023-04-05T10:49:03.851Z,98257.13
2023-04-05T10:51:05.544Z,98250.38
2023-04-05T10:53:06.845Z,98248.66
2023-04-05T10:55:08.209Z,98252.91
2023-04-05T10:57:10.490Z,98246.94
2023-04-05T10:59:12.273Z,98242.66
2023-04-05T11:01:13.853Z,98246.03
2023-04-05T11:03:15.549Z,98250.19
2023-04-05T11:05:16.942Z,98242.44
2023-04-05T11:07:18.289Z,98245.75
2023-04-05T11:09:20.436Z,98239.72
2023-04-05T11:11:21.739Z,98242.13
2023-04-05T11:13:23.067Z,98238.66
2023-04-05T11:15:30.556Z,98239.44
2023-04-05T11:17:32.078Z,98231.69
2023-04-05T11:19:33.444Z,98240.97
2023-04-05T11:21:38.220Z,98228.06
2023-04-05T11:23:39.544Z,98229.72
2023-04-05T11:25:41.439Z,98234.72
2023-04-05T11:27:42.789Z,98227.84
2023-04-05T11:29:44.143Z,98221.09
2023-04-05T11:31:45.484Z,98228.75
2023-04-05T11:33:55.198Z,98217.69
2023-04-05T11:35:57.463Z,98205.84
2023-04-05T11:37:58.901Z,98212.69
2023-04-05T11:40:00.329Z,98213.59
2023-04-05T11:42:04.554Z,98212.75
2023-04-05T11:44:05.915Z,98224.72
2023-04-05T11:46:07.325Z,98222.25
2023-04-05T11:48:08.812Z,98219.78
2023-04-05T11:50:10.234Z,98221.50
2023-04-05T11:52:11.988Z,98208.88
2023-04-05T11:54:13.283Z,98209.00
2023-04-05T11:56:16.100Z,98213.34
2023-04-05T11:58:17.522Z,98217.66
2023-04-05T12:00:18.849Z,98210.88
2023-04-05T12:02:20.283Z,98211.78
2023-04-05T12:04:21.611Z,98205.88
2023-04-05T12:06:22.975Z,98205.03
2023-04-05T12:08:24.274Z,98203.38
2023-04-05T12:10:25.779Z,98199.03
2023-04-05T12:12:27.141Z,98200.66
2023-04-05T12:14:31.340Z,98198.06
2023-04-05T12:16:32.656Z,98201.44
2023-04-05T12:18:34.033Z,98200.66
2023-04-05T12:20:35.378Z,98199.78
2023-04-05T12:22:36.678Z,98203.13
2023-04-05T12:24:38.296Z,98198.88
2023-04-05T12:26:40.473Z,98194.47
2023-04-05T12:28:41.949Z,98190.00
2023-04-05T12:30:45.997Z,98183.09
2023-04-05T12:32:47.888Z,98178.78
2023-04-05T12:34:49.287Z,98190.72
2023-04-05T12:36:50.577Z,98180.50
2023-04-05T12:38:51.878Z,98180.28
2023-04-05T12:40:53.919Z,98175.91
2023-04-05T12:42:55.227Z,98173.16
2023-04-05T12:44:56.520Z,98176.28
2023-04-05T12:46:57.836Z,98174.41
2023-04-05T12:48:59.131Z,98164.88
2023-04-05T12:51:00.466Z,98167.88
2023-04-05T12:53:02.362Z,98160.91
2023-04-05T12:55:03.663Z,98158.94
2023-04-05T12:57:08.758Z,98164.84
2023-04-05T12:59:10.267Z,98147.72
2023-04-05T13:01:12.948Z,98160.50
2023-04-05T13:03:14.477Z,98161.03
2023-04-05T13:05:16.182Z,98160.78
2023-04-05T13:07:17.608Z,98166.41
2023-04-05T13:09:18.903Z,98168.09
2023-04-05T13:11:20.341Z,98163.78
2023-04-05T13:13:21.704Z,98166.22
2023-04-05T13:15:23.051Z,98169.94
2023-04-05T13:17:24.458Z,98167.47
2023-04-05T13:19:26.023Z,98160.66
2023-04-05T13:21:27.336Z,98176.00
2023-04-05T13:23:28.678Z,98169.63
2023-04-05T13:25:29.989Z,98175.03
2023-04-05T13:27:31.348Z,98177.81
2023-04-05T13:29:32.633Z,98174.59
2023-04-05T13:31:34.109Z,98183.16
2023-04-05T13:33:35.682Z,98171.38
2023-04-05T13:35:37.160Z,98169.78
2023-04-05T13:37:38.487Z,98166.47
2023-04-05T13:39:39.779Z,98168.19
2023-04-05T13:41:41.087Z,98160.38
2023-04-05T13:43:42.384Z,98153.38
2023-04-05T13:45:46.660Z,98159.13
2023-04-05T13:47:48.037Z,98153.81
2023-04-05T13:49:49.900Z,98140.88
2023-04-05T13:51:51.227Z,98147.41
2023-04-05T13:53:52.528Z,98140.31
2023-04-05T13:55:53.823Z,98147.66
2023-04-05T13:57:55.148Z,98138.00
2023-04-05T13:59:56.540Z,98142.94
2023-04-05T14:01:57.956Z,98145.31
2023-04-05T14:03:59.436Z,98151.22
2023-04-05T14:06:00.831Z,98152.84
2023-04-05T14:08:02.198Z,98150.19
2023-04-05T14:10:06.266Z,98146.69
2023-04-05T14:12:08.594Z,98146.63
2023-04-05T14:14:10.007Z,98146.56
2023-04-05T14:16:11.494Z,98147.47
2023-04-05T14:18:15.819Z,98143.19
2023-04-05T14:20:17.219Z,98149.91
2023-04-05T14:22:18.522Z,98138.84
2023-04-05T14:24:19.956Z,98138.00
2023-04-05T14:26:24.268Z,98137.28
2023-04-05T14:28:25.748Z,98135.69
2023-04-05T14:30:27.086Z,98135.00
2023-04-05T14:32:29.028Z,98135.16
2023-04-05T14:34:31.686Z,98131.94
2023-04-05T14:36:33.417Z,98126.94
2023-04-05T14:38:34.736Z,98137.16
2023-04-05T14:40:36.138Z,98125.34
2023-04-05T14:42:48.642Z,98130.53
2023-04-05T14:44:51.363Z,98134.72
2023-04-05T14:46:52.778Z,98132.34
2023-04-05T14:48:54.100Z,98128.72
2023-04-05T14:50:55.419Z,98130.97
2023-04-05T14:52:57.804Z,98143.88
2023-04-05T14:54:59.121Z,98139.31
2023-04-05T14:57:00.587Z,98139.97
2023-04-05T14:59:02.664Z,98133.06
2023-04-05T15:01:04.640Z,98144.81
2023-04-05T15:03:06.130Z,98136.19
2023-04-05T15:05:07.550Z,98138.44
2023-04-05T15:07:08.896Z,98137.38
2023-04-05T15:09:10.247Z,98133.78
2023-04-05T15:11:11.593Z,98135.19
2023-04-05T15:13:12.967Z,98138.34
2023-04-05T15:15:14.386Z,98137.28
2023-04-05T15:17:15.852Z,98138.00
2023-04-05T15:19:17.557Z,98137.88
2023-04-05T15:21:20.056Z,98138.63
2023-04-05T15:23:21.565Z,98132.59
2023-04-05T15:25:22.984Z,98136.00
2023-04-05T15:27:24.310Z,98132.53
2023-04-05T15:29:25.804Z,97987.06
2023-04-05T15:31:27.176Z,98130.72
2023-04-05T15:33:31.430Z,98139.28
2023-04-05T15:35:41.905Z,98137.59
2023-04-05T15:37:43.343Z,98143.69
2023-04-05T15:39:44.673Z,98141.19
2023-04-05T15:41:46.672Z,98148.09
2023-04-05T15:43:47.974Z,98141.38
2023-04-05T15:45:49.392Z,98139.78
2023-04-05T15:47:51.060Z,98139.94
2023-04-05T15:49:52.373Z,98146.03
2023-04-05T15:51:53.682Z,98145.25
2023-04-05T15:53:55.013Z,98147.97
2023-04-05T15:55:58.376Z,98139.56
2023-04-05T15:57:59.822Z,98137.06
2023-04-05T16:00:02.205Z,98141.28
2023-04-05T16:02:03.581Z,98144.06
2023-04-05T16:04:11.569Z,98140.09
2023-04-05T16:06:12.937Z,98133.97
2023-04-05T16:08:17.418Z,98139.66
2023-04-05T16:10:18.776Z,98141.28
2023-04-05T16:12:20.234Z,98143.38
2023-04-05T16:14:21.564Z,98138.63
2023-04-05T16:16:32.553Z,98140.41
2023-04-05T16:18:43.173Z,98135.28
2023-04-05T16:20:44.478Z,98133.88
2023-04-05T16:22:46.148Z,98128.91
2023-04-05T16:24:48.103Z,98131.47
2023-04-05T16:26:49.424Z,98130.59
2023-04-05T16:28:50.723Z,98129.72
2023-04-05T16:30:52.160Z,98132.88
2023-04-05T16:32:56.478Z,98138.81
2023-04-05T16:35:00.811Z,98133.03
2023-04-05T16:37:02.211Z,98133.19
2023-04-05T16:39:07.577Z,98138.91
2023-04-05T16:41:08.890Z,98138.81
2023-04-05T16:43:10.367Z,98134.84
2023-04-05T16:45:11.694Z,98128.59
2023-04-05T16:47:13.063Z,98135.38
2023-04-05T16:49:15.879Z,98130.50
2023-04-05T16:51:17.335Z,98140.56
2023-04-05T16:53:18.659Z,98132.44
2023-04-05T16:55:20.027Z,98138.38
2023-04-05T16:57:24.274Z,98136.25
2023-04-05T16:59:28.473Z,98139.00
2023-04-05T17:01:30.498Z,98142.50
2023-04-05T17:03:31.916Z,98140.81
2023-04-05T17:05:33.292Z,98148.47
2023-04-05T17:07:34.686Z,98147.47
2023-04-05T17:09:36.007Z,98149.69
2023-04-05T17:11:37.779Z,98142.34
2023-04-05T17:13:39.179Z,98145.53
2023-04-05T17:15:40.565Z,98149.28
2023-04-05T17:17:42.046Z,98151.91
2023-04-05T17:19:43.687Z,98148.56
2023-04-05T17:21:48.736Z,98154.59
2023-04-05T17:23:50.174Z,98155.91
2023-04-05T17:25:54.551Z,98152.69
2023-04-05T17:27:58.856Z,98155.41
2023-04-05T17:30:02.217Z,98152.78
2023-04-05T17:32:03.577Z,98155.25
2023-04-05T17:34:05.112Z,98158.16
2023-04-05T17:36:06.480Z,98155.53
2023-04-05T17:38:10.799Z,98159.53
2023-04-05T17:40:12.135Z,98161.69
2023-04-05T17:42:13.551Z,98153.41
2023-04-05T17:44:14.877Z,98154.47
2023-04-05T17:46:20.095Z,98133.66
2023-04-05T17:48:25.983Z,98165.78
2023-04-05T17:50:27.555Z,98166.72
2023-04-05T17:52:28.913Z,98169.34
2023-04-05T17:54:31.661Z,98165.16
2023-04-05T17:56:32.972Z,98159.22
2023-04-05T17:58:34.359Z,98164.38
2023-04-05T18:00:35.867Z,98169.41
2023-04-05T18:02:37.949Z,98174.50
2023-04-05T18:04:39.522Z,98177.84
2023-04-05T18:06:43.689Z,98174.44
2023-04-05T18:08:45.426Z,98176.00
2023-04-05T18:10:46.851Z,98171.63
2023-04-05T18:12:50.811Z,98176.59
2023-04-05T18:14:52.140Z,98182.44
2023-04-05T18:16:53.534Z,98172.91
2023-04-05T18:18:54.919Z,98179.53
2023-04-05T18:20:56.438Z,98170.09
2023-04-05T18:22:57.855Z,98177.66
2023-04-05T18:24:59.850Z,98176.91
2023-04-05T18:27:01.290Z,98179.53
2023-04-05T18:29:02.636Z,98181.41
2023-04-05T18:31:04.027Z,98184.66
2023-04-05T18:33:08.083Z,98188.84
2023-04-05T18:35:10.043Z,98188.25
2023-04-05T18:37:14.339Z,98192.00
2023-04-05T18:39:16.717Z,98186.09
2023-04-05T18:41:18.039Z,98197.06
2023-04-05T18:43:19.349Z,98191.88
2023-04-05T18:45:21.865Z,98193.13
2023-04-05T18:47:23.168Z,98201.34
2023-04-05T18:49:24.496Z,98201.63
2023-04-05T18:51:27.235Z,98209.41
2023-04-05T18:53:28.591Z,98203.41
2023-04-05T18:55:29.905Z,98204.38
2023-04-05T18:57:31.224Z,98207.41
2023-04-05T18:59:32.718Z,98207.09
2023-04-05T19:01:34.146Z,98202.03
2023-04-05T19:03:35.553Z,98206.75
2023-04-05T19:05:36.881Z,98207.34
2023-04-05T19:07:38.303Z,98210.50
2023-04-05T19:09:39.618Z,98216.53
2023-04-05T19:11:40.974Z,98213.94
2023-04-05T19:13:42.315Z,98217.25
2023-04-05T19:15:43.722Z,98216.50
2023-04-05T19:17:45.383Z,98219.09
2023-04-05T19:19:48.591Z,98217.81
2023-04-05T19:21:49.914Z,98221.97
2023-04-05T19:23:51.304Z,98219.84
2023-04-05T19:25:59.182Z,98221.69
2023-04-05T19:28:00.580Z,98224.25
2023-04-05T19:30:01.920Z,98215.19
2023-04-05T19:32:03.274Z,98216.09
2023-04-05T19:34:04.588Z,98211.00
2023-04-05T19:36:06.320Z,98225.44
2023-04-05T19:38:07.842Z,98225.94
2023-04-05T19:40:09.295Z,98218.13
2023-04-05T19:42:10.715Z,98220.69
2023-04-05T19:44:14.843Z,98220.41
2023-04-05T19:46:21.916Z,98216.78
2023-04-05T19:48:23.304Z,98223.00
2023-04-05T19:50:26.736Z,98225.41
2023-04-05T19:52:28.048Z,98224.75
2023-04-05T19:54:29.487Z,98222.34
2023-04-05T19:56:32.422Z,98217.88
2023-04-05T19:58:34.233Z,98221.31
2023-04-05T20:00:38.397Z,98226.47
2023-04-05T20:02:39.730Z,98222.69
2023-04-05T20:04:41.317Z,98218.28
2023-04-05T20:06:42.769Z,98218.75
2023-04-05T20:08:44.130Z,98218.94
2023-04-05T20:10:52.088Z,98219.28
2023-04-05T20:12:53.479Z,98217.31
2023-04-05T20:14:55.667Z,98211.09
2023-04-05T20:16:57.158Z,98217.72
2023-04-05T20:18:58.560Z,98215.06
2023-04-05T20:20:59.909Z,98208.25
2023-04-05T20:23:02.227Z,98208.13
2023-04-05T20:25:03.551Z,98203.06
2023-04-05T20:27:05.484Z,98209.13
2023-04-05T20:29:07.295Z,98204.22
2023-04-05T20:31:08.925Z,98207.63
2023-04-05T20:33:10.552Z,98205.19
2023-04-05T20:35:14.823Z,98210.31
2023-04-05T20:37:16.128Z,98202.75
2023-04-05T20:39:17.532Z,98201.13
2023-04-05T20:41:18.889Z,98198.63
2023-04-05T20:43:20.485Z,98187.47
2023-04-05T20:45:22.333Z,98200.72
2023-04-05T20:47:23.684Z,98204.84
2023-04-05T20:49:25.056Z,98199.59
2023-04-05T20:51:26.745Z,98206.06
2023-04-05T20:53:31.255Z,98194.06
2023-04-05T20:55:32.562Z,98191.81
2023-04-05T20:57:34.400Z,98196.59
2023-04-05T20:59:36.036Z,98189.53
2023-04-05T21:01:38.241Z,98196.97
2023-04-05T21:03:39.712Z,98192.47
2023-04-05T21:05:41.247Z,98190.31
2023-04-05T21:07:42.896Z,98187.41
2023-04-05T21:09:44.252Z,98182.03
2023-04-05T21:11:45.754Z,98185.91
2023-04-05T21:13:47.070Z,98184.88
2023-04-05T21:15:48.414Z,98175.19
2023-04-05T21:17:49.799Z,98180.19
2023-04-05T21:19:51.498Z,98180.06
2023-04-05T21:21:52.936Z,98180.78
2023-04-05T21:23:54.269Z,98166.19
2023-04-05T21:25:55.643Z,98174.66
2023-04-05T21:27:56.974Z,98173.75
2023-04-05T21:29:58.319Z,98183.00
2023-04-05T21:31:59.658Z,98173.69
2023-04-05T21:34:01.003Z,98176.31
2023-04-05T21:36:02.362Z,98164.41
2023-04-05T21:38:03.759Z,98165.50
2023-04-05T21:40:05.267Z,98170.63
2023-04-05T21:42:06.651Z,98165.81
2023-04-05T21:44:08.015Z,98167.72
2023-04-05T21:46:09.366Z,98168.69
2023-04-05T21:48:10.947Z,98161.06
2023-04-05T21:50:12.324Z,98160.38
2023-04-05T21:52:13.748Z,98163.06
2023-04-05T21:54:15.295Z,98160.75
2023-04-05T21:56:16.638Z,98154.88
2023-04-05T21:58:18.001Z,98023.13
2023-04-05T22:00:19.855Z,98156.84
2023-04-05T22:02:21.264Z,98155.25
2023-04-05T22:04:24.183Z,98163.00
2023-04-05T22:06:27.291Z,98153.63
2023-04-05T22:08:28.978Z,98153.69
2023-04-05T22:10:30.429Z,98150.31
2023-04-05T22:12:31.818Z,98155.53
2023-04-05T22:14:33.148Z,98156.47
2023-04-05T22:16:34.554Z,98161.69
2023-04-05T22:18:36.592Z,98160.94
2023-04-05T22:20:37.936Z,98166.09
2023-04-05T22:22:39.280Z,98155.94
2023-04-05T22:24:40.604Z,98160.22
2023-04-05T22:26:41.973Z,98156.03
2023-04-05T22:28:43.336Z,98162.00
2023-04-05T22:30:44.692Z,98163.72
2023-04-05T22:32:46.809Z,98163.69
2023-04-05T22:34:48.728Z,98162.78
2023-04-05T22:36:50.028Z,98159.31
2023-04-05T22:38:53.570Z,98160.94
2023-04-05T22:40:55.539Z,98158.28
2023-04-05T22:42:56.935Z,98152.91
2023-04-05T22:44:58.300Z,98155.25
2023-04-05T22:46:59.602Z,98150.84
2023-04-05T22:49:01.341Z,98143.91
2023-04-05T22:51:02.830Z,98152.13
2023-04-05T22:53:04.165Z,98147.72
2023-04-05T22:55:05.668Z,98144.97
2023-04-05T22:57:11.194Z,98145.75
2023-04-05T22:59:13.026Z,98145.63
2023-04-05T23:01:14.379Z,98144.72
2023-04-05T23:03:15.759Z,98142.22
2023-04-05T23:05:17.114Z,98139.66
2023-04-05T23:07:18.427Z,98141.38
2023-04-05T23:09:19.743Z,98144.91
2023-04-05T23:11:21.572Z,98148.34
2023-04-05T23:13:22.919Z,98146.75
2023-04-05T23:15:24.307Z,98147.66
2023-04-05T23:17:25.654Z,98145.25
2023-04-05T23:19:27.231Z,98150.47
2023-04-05T23:21:28.580Z,98142.88
2023-04-05T23:23:29.943Z,98143.03
2023-04-05T23:25:31.332Z,98142.31
2023-04-05T23:27:32.640Z,98130.50
2023-04-05T23:29:33.948Z,98138.22
2023-04-05T23:31:35.349Z,98134.03
2023-04-05T23:33:36.790Z,98135.81
2023-04-05T23:35:38.166Z,98129.94
2023-04-05T23:37:39.546Z,98129.13
2023-04-05T23:39:41.036Z,98136.00
2023-04-05T23:41:42.359Z,98125.88
2023-04-05T23:43:43.708Z,98135.31
2023-04-05T23:45:45.420Z,98130.25
2023-04-05T23:47:46.814Z,98132.84
2023-04-05T23:49:48.146Z,98133.75
2023-04-05T23:51:49.556Z,98134.59